Estación de Combarbala

Ultimos registro cada 15 minutos 90
Estación Fecha / Hora Temperatura Humedad Lluvia Velocidad Dirección Radiación Presion
90 Combarbala 04-05-2026 22:15 17,2 28,7 0 0 246 0,6 909,6
89 Combarbala 04-05-2026 22:00 17,1 29 0 0 246 0,6 909,5
88 Combarbala 04-05-2026 21:45 17 28,2 0 0 246 0,6 909,3
87 Combarbala 04-05-2026 21:30 17,6 28,1 0 0 246 0,6 909,1
86 Combarbala 04-05-2026 21:15 17,8 27,6 0 0 246 0,6 909
85 Combarbala 04-05-2026 21:00 18,2 27,3 0 0 246 0,6 909
84 Combarbala 04-05-2026 20:45 18 27,1 0 0 246 0,6 908,9
83 Combarbala 04-05-2026 20:30 17,6 27,2 0 0 246 0,6 908,9
82 Combarbala 04-05-2026 20:15 19,6 24,6 0 0 246 0,6 909
81 Combarbala 04-05-2026 20:00 19,6 25,7 0 0 246 0,6 909
80 Combarbala 04-05-2026 19:45 19,8 25,1 0 0 246 0,6 908,9
79 Combarbala 04-05-2026 19:30 20 25,1 0 0 246 0,6 908,9
78 Combarbala 04-05-2026 19:15 20,1 23,5 0 0 246 0,6 908,6
77 Combarbala 04-05-2026 19:00 20,4 22,9 0 0 246 0,6 908,4
76 Combarbala 04-05-2026 18:45 20,9 21,9 0 0 246 0,6 908,5
75 Combarbala 04-05-2026 18:30 21,3 21,4 0 0 246 0,6 908,1
74 Combarbala 04-05-2026 18:15 21,9 20,6 0 0 246 0,6 907,9
73 Combarbala 04-05-2026 18:00 23,4 18,8 0 0 260 5,6 907,6
72 Combarbala 04-05-2026 17:45 24,9 18 0 0,5 293 14,4 907,6
71 Combarbala 04-05-2026 17:30 25,9 17,6 0 0,5 305 24,4 907,2
70 Combarbala 04-05-2026 17:15 27,8 15,7 0 0,5 288 115,6 907
69 Combarbala 04-05-2026 17:00 28,8 14 0 0,5 326 158,1 906,9
68 Combarbala 04-05-2026 16:45 29,6 13,7 0 1 319 200,6 907
67 Combarbala 04-05-2026 16:30 30,2 12,2 0 0,5 286 246,9 907
66 Combarbala 04-05-2026 16:15 31,1 11,3 0 0,5 291 288,1 907
65 Combarbala 04-05-2026 16:00 30,4 11,9 0 1 306 336,9 907
64 Combarbala 04-05-2026 15:45 30,5 11,6 0 0,5 314 370,6 906,9
63 Combarbala 04-05-2026 15:30 30,5 11,7 0 0,5 289 401,9 906,9
62 Combarbala 04-05-2026 15:15 30,8 11,3 0 0,5 358 448,1 906,9
61 Combarbala 04-05-2026 15:00 31 11 0 0,5 338 479,4 907
60 Combarbala 04-05-2026 14:45 30,8 11,4 0 1 314 459,4 907,1
59 Combarbala 04-05-2026 14:30 30,5 11,2 0 0,5 286 530,6 907,4
58 Combarbala 04-05-2026 14:15 31,7 10,2 0 0,5 303 559,4 907,4
57 Combarbala 04-05-2026 14:00 31 11,4 0 0,5 324 581,9 907,7
56 Combarbala 04-05-2026 13:45 30,8 12,3 0 0,5 305 596,9 907,9
55 Combarbala 04-05-2026 13:30 29,8 12,4 0 1 302 613,1 908,1
54 Combarbala 04-05-2026 13:15 29,3 12,9 0 1 246 625,6 908,4
53 Combarbala 04-05-2026 13:00 30,1 12,3 0 0,5 293 634,4 908,2
52 Combarbala 04-05-2026 12:45 29,6 12,5 0 0,5 320 635,6 908,6
51 Combarbala 04-05-2026 12:30 28,9 12,2 0 0,5 321 634,4 908,8
50 Combarbala 04-05-2026 12:15 28,7 12,2 0 0,5 347 634,4 908,8
49 Combarbala 04-05-2026 12:00 28,2 12,1 0 0,5 345 629,4 909
48 Combarbala 04-05-2026 11:45 27,9 12,1 0 0,5 334 621,9 909,1
47 Combarbala 04-05-2026 11:30 27,4 12,7 0 0,5 0 606,9 909,2
46 Combarbala 04-05-2026 11:15 25,7 13,5 0 0,5 4 511,9 909,4
45 Combarbala 04-05-2026 11:00 26,5 13,2 0 0,5 358 526,9 909,3
44 Combarbala 04-05-2026 10:45 26,1 14,3 0 0,5 76 556,9 909,4
43 Combarbala 04-05-2026 10:30 25,6 15,1 0 0 94 521,9 909,6
42 Combarbala 04-05-2026 10:15 24,5 16,3 0 0 97 474,4 909,8
41 Combarbala 04-05-2026 10:00 23,7 17,6 0 0 97 439,4 909,8
40 Combarbala 04-05-2026 09:45 24 17,2 0 0 97 401,9 909,8
39 Combarbala 04-05-2026 09:30 23,6 16,6 0 0 97 364,4 909,8
38 Combarbala 04-05-2026 09:15 22,7 16,9 0 0 97 323,1 909,9
37 Combarbala 04-05-2026 09:00 21,3 18,4 0 0 97 279,4 909,9
36 Combarbala 04-05-2026 08:45 21 18,4 0 0 97 235,6 909,9
35 Combarbala 04-05-2026 08:30 20,4 18,6 0 0 97 191,9 909,8
34 Combarbala 04-05-2026 08:15 18,8 19,1 0 0 97 149,4 909,8
33 Combarbala 04-05-2026 08:00 16,8 20,6 0 0 97 104,4 909,9
32 Combarbala 04-05-2026 07:45 14,5 22,2 0 0 97 9,4 909,9
31 Combarbala 04-05-2026 07:30 14,1 22,2 0 0 97 5,6 909,8
30 Combarbala 04-05-2026 07:15 14,5 21,8 0 0 97 1,9 909,8
29 Combarbala 04-05-2026 07:00 14,1 22,6 0 0 97 0,6 909,7
28 Combarbala 04-05-2026 06:45 15,1 21,5 0 0 97 0,6 909,6
27 Combarbala 04-05-2026 06:30 14,4 22,4 0 0 97 0,6 909,5
26 Combarbala 04-05-2026 06:15 14,7 21,9 0 0 97 0,6 909,4
25 Combarbala 04-05-2026 06:00 14,7 22,5 0 0 97 0,6 909,4
24 Combarbala 04-05-2026 05:45 14,6 22,2 0 0 97 0,6 909,5
23 Combarbala 04-05-2026 05:30 14,9 21,6 0 0 97 0,6 909,3
22 Combarbala 04-05-2026 05:15 14,9 22,3 0 0 97 0,6 909,3
21 Combarbala 04-05-2026 05:00 15,5 22,1 0 0 97 0,6 909,1
20 Combarbala 04-05-2026 04:45 15,3 21,8 0 0 97 0,6 909,1
19 Combarbala 04-05-2026 04:30 15,5 21,5 0 0 97 0,6 909,2
18 Combarbala 04-05-2026 04:15 15,5 21,6 0 0 97 0,6 909,3
17 Combarbala 04-05-2026 04:00 15,8 20,8 0 0 97 0,6 909,2
16 Combarbala 04-05-2026 03:45 15,8 21,3 0 0 97 0,6 909,3
15 Combarbala 04-05-2026 03:30 15,2 22,2 0 0 97 0,6 909,2
14 Combarbala 04-05-2026 03:15 15,4 22,1 0 0 97 0,6 909,5
13 Combarbala 04-05-2026 03:00 15,5 23,1 0 0 97 0,6 909,5
12 Combarbala 04-05-2026 02:45 15,3 23,4 0 0 97 0,6 909,6
11 Combarbala 04-05-2026 02:30 15,2 23,6 0 0 97 0,6 909,7
10 Combarbala 04-05-2026 02:15 15 24,3 0 0 97 0,6 909,9
9 Combarbala 04-05-2026 02:00 15,2 23,8 0 0 97 0,6 909,9
8 Combarbala 04-05-2026 01:45 15,2 24,1 0 0 97 0,6 910
7 Combarbala 04-05-2026 01:30 14,8 25 0 0 97 0,6 910,3
6 Combarbala 04-05-2026 01:15 15,1 24,6 0 0 97 0,6 910,3
5 Combarbala 04-05-2026 01:00 14,9 24,6 0 0 97 0,6 910,3
4 Combarbala 04-05-2026 00:45 14,8 24,7 0 0 97 0,6 910,5
3 Combarbala 04-05-2026 00:30 14,8 24,6 0 0 97 0,6 910,4
2 Combarbala 04-05-2026 00:15 15 24,5 0 0 97 0,6 910,7
1 Combarbala 04-05-2026 00:00 15,4 23,3 0 0 97 0,6 910,5